createdAt,value
2023-05-04T00:00:15.548Z,32.36
2023-05-04T00:02:42.760Z,32.34
2023-05-04T00:05:10.405Z,32.73
2023-05-04T00:07:37.178Z,32.62
2023-05-04T00:10:04.918Z,32.51
2023-05-04T00:12:31.940Z,32.19
2023-05-04T00:14:58.705Z,32.40
2023-05-04T00:17:25.465Z,32.24
2023-05-04T00:19:52.164Z,32.31
2023-05-04T00:22:19.039Z,32.41
2023-05-04T00:24:45.964Z,33.16
2023-05-04T00:27:14.951Z,33.21
2023-05-04T00:29:41.991Z,32.75
2023-05-04T00:32:09.557Z,32.91
2023-05-04T00:34:36.297Z,33.02
2023-05-04T00:37:03.167Z,33.10
2023-05-04T00:39:29.999Z,33.51
2023-05-04T00:41:56.800Z,33.90
2023-05-04T00:44:24.162Z,34.18
2023-05-04T00:46:52.836Z,34.11
2023-05-04T00:49:21.656Z,34.29
2023-05-04T00:51:49.043Z,34.87
2023-05-04T00:54:18.907Z,35.00
2023-05-04T00:56:46.016Z,35.23
2023-05-04T00:59:14.113Z,35.26
2023-05-04T01:01:41.603Z,35.04
2023-05-04T01:04:09.363Z,35.18
2023-05-04T01:06:44.462Z,35.09
2023-05-04T01:09:25.713Z,34.98
2023-05-04T01:12:06.275Z,34.73
2023-05-04T01:14:33.959Z,34.68
2023-05-04T01:17:03.427Z,34.86
2023-05-04T01:19:30.357Z,35.02
2023-05-04T01:21:57.338Z,35.04
2023-05-04T01:24:27.408Z,35.08
2023-05-04T01:27:08.796Z,34.61
2023-05-04T01:29:49.810Z,34.79
2023-05-04T01:32:16.582Z,34.65
2023-05-04T01:34:43.603Z,34.50
2023-05-04T01:37:10.441Z,34.47
2023-05-04T01:39:37.149Z,34.40
2023-05-04T01:42:03.954Z,34.36
2023-05-04T01:44:31.172Z,34.30
2023-05-04T01:46:57.912Z,34.22
2023-05-04T01:49:24.685Z,34.12
2023-05-04T01:51:51.433Z,34.46
2023-05-04T01:54:18.233Z,34.68
2023-05-04T01:56:44.966Z,34.76
2023-05-04T01:59:12.160Z,34.56
2023-05-04T02:01:40.068Z,34.73
2023-05-04T02:04:07.115Z,34.84
2023-05-04T02:06:34.227Z,34.83
2023-05-04T02:09:00.977Z,34.58
2023-05-04T02:11:27.949Z,34.66
2023-05-04T02:13:54.677Z,34.71
2023-05-04T02:16:21.612Z,34.70
2023-05-04T02:18:48.461Z,34.91
2023-05-04T02:21:15.765Z,34.67
2023-05-04T02:23:44.036Z,34.43
2023-05-04T02:26:11.386Z,34.79
2023-05-04T02:28:38.226Z,35.36
2023-05-04T02:31:04.982Z,35.49
2023-05-04T02:33:32.013Z,35.33
2023-05-04T02:35:58.756Z,35.02
2023-05-04T02:38:26.663Z,34.57
2023-05-04T02:40:53.410Z,35.01
2023-05-04T02:43:20.143Z,35.98
2023-05-04T02:45:46.942Z,35.45
2023-05-04T02:48:14.005Z,35.50
2023-05-04T02:50:40.916Z,34.84
2023-05-04T02:53:07.630Z,35.11
2023-05-04T02:55:34.384Z,35.06
2023-05-04T02:58:01.347Z,35.17
2023-05-04T03:00:28.215Z,34.79
2023-05-04T03:02:55.079Z,34.71
2023-05-04T03:05:22.022Z,34.85
2023-05-04T03:07:48.852Z,34.62
2023-05-04T03:10:16.023Z,34.68
2023-05-04T03:12:42.934Z,35.20
2023-05-04T03:15:10.042Z,35.28
2023-05-04T03:17:37.268Z,35.03
2023-05-04T03:20:05.521Z,34.46
2023-05-04T03:22:32.785Z,34.58
2023-05-04T03:24:59.734Z,34.29
2023-05-04T03:27:26.996Z,34.08
2023-05-04T03:29:53.716Z,34.29
2023-05-04T03:32:20.754Z,35.11
2023-05-04T03:34:47.531Z,34.84
2023-05-04T03:37:15.057Z,35.03
2023-05-04T03:39:41.824Z,35.12
2023-05-04T03:42:09.031Z,34.81
2023-05-04T03:44:35.766Z,34.52
2023-05-04T03:47:02.505Z,34.37
2023-05-04T03:49:29.659Z,34.58
2023-05-04T03:51:56.417Z,34.65
2023-05-04T03:54:23.362Z,34.64
2023-05-04T03:56:50.109Z,34.86
2023-05-04T03:59:17.560Z,34.98
2023-05-04T04:01:44.921Z,35.22
2023-05-04T04:04:12.007Z,35.14
2023-05-04T04:06:39.618Z,35.06
2023-05-04T04:09:07.721Z,35.16
2023-05-04T04:11:34.632Z,34.91
2023-05-04T04:14:01.566Z,34.51
2023-05-04T04:16:28.517Z,33.61
2023-05-04T04:18:55.428Z,33.66
2023-05-04T04:21:22.127Z,33.74
2023-05-04T04:23:48.821Z,34.03
2023-05-04T04:26:15.904Z,33.75
2023-05-04T04:28:44.886Z,33.07
2023-05-04T04:31:11.643Z,32.56
2023-05-04T04:33:38.398Z,32.19
2023-05-04T04:36:05.359Z,31.63
2023-05-04T04:38:32.194Z,31.01
2023-05-04T04:40:58.915Z,30.65
2023-05-04T04:43:25.734Z,30.89
2023-05-04T04:45:54.026Z,31.25
2023-05-04T04:48:22.194Z,31.80
2023-05-04T04:50:49.013Z,31.81
2023-05-04T04:53:15.893Z,31.66
2023-05-04T04:55:42.705Z,31.30
2023-05-04T04:58:09.406Z,31.44
2023-05-04T05:00:36.510Z,31.78
2023-05-04T05:03:04.541Z,31.73
2023-05-04T05:05:31.905Z,31.35
2023-05-04T05:07:58.817Z,31.29
2023-05-04T05:10:25.823Z,31.65
2023-05-04T05:12:52.778Z,31.62
2023-05-04T05:15:19.581Z,31.67
2023-05-04T05:17:46.453Z,31.50
2023-05-04T05:20:15.294Z,31.74
2023-05-04T05:22:43.020Z,31.75
2023-05-04T05:25:09.868Z,31.49
2023-05-04T05:27:36.992Z,31.49
2023-05-04T05:30:05.863Z,31.24
2023-05-04T05:32:33.238Z,31.04
2023-05-04T05:35:00.151Z,30.79
2023-05-04T05:37:27.776Z,30.58
2023-05-04T05:39:54.583Z,29.57
2023-05-04T05:42:21.445Z,29.34
2023-05-04T05:44:48.361Z,29.35
2023-05-04T05:47:15.291Z,28.73
2023-05-04T05:49:44.793Z,27.84
2023-05-04T05:52:13.045Z,26.58
2023-05-04T05:54:39.800Z,25.74
2023-05-04T05:57:06.553Z,25.40
2023-05-04T05:59:33.434Z,24.76
2023-05-04T06:02:00.278Z,24.45
2023-05-04T06:04:27.243Z,23.80
2023-05-04T06:06:54.017Z,23.28
2023-05-04T06:09:21.189Z,23.29
2023-05-04T06:11:48.553Z,23.37
2023-05-04T06:14:15.278Z,23.23
2023-05-04T06:16:42.129Z,23.67
2023-05-04T06:19:09.059Z,23.48
2023-05-04T06:21:35.915Z,23.67
2023-05-04T06:24:02.681Z,24.07
2023-05-04T06:26:29.598Z,24.05
2023-05-04T06:28:56.308Z,24.57
2023-05-04T06:31:24.361Z,24.26
2023-05-04T06:33:51.378Z,24.31
2023-05-04T06:36:18.437Z,24.53
2023-05-04T06:38:45.360Z,24.67
2023-05-04T06:41:14.007Z,24.58
2023-05-04T06:43:42.228Z,24.39
2023-05-04T06:46:09.034Z,24.30
2023-05-04T06:48:35.783Z,24.25
2023-05-04T06:51:03.185Z,23.77
2023-05-04T06:53:30.053Z,23.49
2023-05-04T06:55:56.798Z,23.26
2023-05-04T06:58:23.629Z,22.89
2023-05-04T07:00:51.273Z,22.78
2023-05-04T07:03:18.110Z,22.49
2023-05-04T07:05:45.450Z,22.19
2023-05-04T07:08:12.576Z,22.04
2023-05-04T07:10:39.460Z,21.66
2023-05-04T07:13:06.460Z,21.32
2023-05-04T07:15:34.046Z,20.72
2023-05-04T07:18:01.406Z,20.57
2023-05-04T07:20:28.421Z,20.75
2023-05-04T07:22:58.618Z,20.30
2023-05-04T07:25:25.797Z,20.41
2023-05-04T07:27:53.161Z,20.47
2023-05-04T07:30:20.366Z,20.47
2023-05-04T07:32:47.573Z,20.16
2023-05-04T07:35:15.130Z,20.38
2023-05-04T07:37:41.906Z,20.59
2023-05-04T07:40:10.490Z,20.85
2023-05-04T07:42:37.372Z,20.72
2023-05-04T07:45:04.696Z,20.51
2023-05-04T07:47:31.469Z,20.25
2023-05-04T07:49:58.223Z,19.77
2023-05-04T07:52:24.979Z,19.64
2023-05-04T07:54:53.523Z,19.42
2023-05-04T07:57:20.984Z,19.49
2023-05-04T07:59:48.173Z,19.92
2023-05-04T08:02:15.323Z,19.99
2023-05-04T08:04:42.114Z,20.00
2023-05-04T08:07:08.888Z,19.64
2023-05-04T08:09:35.681Z,19.39
2023-05-04T08:12:04.404Z,19.54
2023-05-04T08:14:31.320Z,19.34
2023-05-04T08:16:58.063Z,19.69
2023-05-04T08:19:24.862Z,19.83
2023-05-04T08:21:51.611Z,19.73
2023-05-04T08:24:18.525Z,19.75
2023-05-04T08:26:59.791Z,19.77
2023-05-04T08:29:31.889Z,19.67
2023-05-04T08:31:58.859Z,19.79
2023-05-04T08:34:26.677Z,19.49
2023-05-04T08:36:53.528Z,19.40
2023-05-04T08:39:20.419Z,19.38
2023-05-04T08:41:47.221Z,19.23
2023-05-04T08:44:15.017Z,19.23
2023-05-04T08:46:42.355Z,19.28
2023-05-04T08:49:10.533Z,19.82
2023-05-04T08:51:37.613Z,19.85
2023-05-04T08:54:07.341Z,19.80
2023-05-04T08:56:35.884Z,19.91
2023-05-04T08:59:03.988Z,20.01
2023-05-04T09:01:30.852Z,19.62
2023-05-04T09:03:57.723Z,19.45
2023-05-04T09:06:24.637Z,19.35
2023-05-04T09:08:51.342Z,18.82
2023-05-04T09:11:18.192Z,18.18
2023-05-04T09:13:44.904Z,18.38
2023-05-04T09:16:14.052Z,18.07
2023-05-04T09:18:43.842Z,17.75
2023-05-04T09:21:11.117Z,18.30
2023-05-04T09:23:51.536Z,18.28
2023-05-04T09:26:29.727Z,18.20
2023-05-04T09:28:56.849Z,18.10
2023-05-04T09:31:24.130Z,17.76
2023-05-04T09:33:53.314Z,17.48
2023-05-04T09:36:22.041Z,17.60
2023-05-04T09:38:49.191Z,17.31
2023-05-04T09:41:16.267Z,17.51
2023-05-04T09:43:43.985Z,17.25
2023-05-04T09:46:18.522Z,17.08
2023-05-04T09:48:52.800Z,17.04
2023-05-04T09:51:23.356Z,17.01
2023-05-04T09:53:50.651Z,17.21
2023-05-04T09:57:15.428Z,20.17
2023-05-04T09:59:42.966Z,18.24
2023-05-04T10:02:21.816Z,17.48
2023-05-04T10:04:50.645Z,17.02
2023-05-04T10:07:17.481Z,16.75
2023-05-04T10:09:44.251Z,16.37
2023-05-04T10:12:12.114Z,16.52
2023-05-04T10:14:38.821Z,16.70
2023-05-04T10:17:15.017Z,16.97
2023-05-04T10:19:49.123Z,16.79
2023-05-04T10:22:34.426Z,16.55
2023-05-04T10:25:10.469Z,17.05
2023-05-04T10:28:00.760Z,17.59
2023-05-04T10:30:30.613Z,17.60
2023-05-04T10:32:58.125Z,17.51
2023-05-04T10:35:25.378Z,17.38
2023-05-04T10:37:54.719Z,17.21
2023-05-04T10:40:37.808Z,16.72
2023-05-04T10:43:05.246Z,16.57
2023-05-04T10:45:39.483Z,16.77
2023-05-04T10:48:08.468Z,16.81
2023-05-04T10:50:43.046Z,16.58
2023-05-04T10:53:09.856Z,16.86
2023-05-04T10:55:44.590Z,17.22
2023-05-04T10:58:14.989Z,17.24
2023-05-04T11:00:43.102Z,17.16
2023-05-04T11:03:12.238Z,16.95
2023-05-04T11:05:47.118Z,16.79
2023-05-04T11:08:21.612Z,16.87
2023-05-04T11:10:51.452Z,16.74
2023-05-04T11:13:19.749Z,16.56
2023-05-04T11:15:50.244Z,16.38
2023-05-04T11:18:26.566Z,16.32
2023-05-04T11:20:53.768Z,16.28
2023-05-04T11:23:20.511Z,16.12
2023-05-04T11:25:47.387Z,15.98
2023-05-04T11:28:14.357Z,16.13
2023-05-04T11:30:43.897Z,16.14
2023-05-04T11:33:12.432Z,16.87
2023-05-04T11:35:39.532Z,17.09
2023-05-04T11:38:07.153Z,17.15
2023-05-04T11:40:34.918Z,17.65
2023-05-04T11:43:02.370Z,17.50
2023-05-04T11:45:33.516Z,17.31
2023-05-04T11:48:00.666Z,17.49
2023-05-04T11:50:28.030Z,17.30
2023-05-04T11:53:06.363Z,17.27
2023-05-04T11:55:33.250Z,17.39
2023-05-04T11:58:01.110Z,17.44
2023-05-04T12:00:39.420Z,17.96
2023-05-04T12:03:07.145Z,17.88
2023-05-04T12:05:35.098Z,17.95
2023-05-04T12:08:03.492Z,17.81
2023-05-04T12:10:34.725Z,17.63
2023-05-04T12:13:02.139Z,18.21
2023-05-04T12:15:30.745Z,18.65
2023-05-04T12:17:58.864Z,18.81
2023-05-04T12:20:31.158Z,18.93
2023-05-04T12:22:57.941Z,18.90
2023-05-04T12:25:24.979Z,19.06
2023-05-04T12:27:51.841Z,19.17
2023-05-04T12:30:18.718Z,19.10
2023-05-04T12:32:45.939Z,19.08
2023-05-04T12:35:12.855Z,18.94
2023-05-04T12:37:39.740Z,18.90
2023-05-04T12:40:21.184Z,18.72
2023-05-04T12:42:54.833Z,18.60
2023-05-04T12:45:22.697Z,18.51
2023-05-04T12:47:49.613Z,18.41
2023-05-04T12:50:16.477Z,18.23
2023-05-04T12:52:43.247Z,18.49
2023-05-04T12:55:10.211Z,18.38
2023-05-04T12:57:37.602Z,18.64
2023-05-04T13:00:08.640Z,18.23
2023-05-04T13:02:35.603Z,18.14
2023-05-04T13:05:02.452Z,18.36
2023-05-04T13:07:29.296Z,18.08
2023-05-04T13:09:56.158Z,17.98
2023-05-04T13:12:22.948Z,17.81
2023-05-04T13:14:52.239Z,17.86
2023-05-04T13:17:18.992Z,17.83
2023-05-04T13:19:45.749Z,17.91
2023-05-04T13:22:12.502Z,18.16
2023-05-04T13:24:39.192Z,18.34
2023-05-04T13:27:05.915Z,17.98
2023-05-04T13:29:32.743Z,17.80
2023-05-04T13:31:59.760Z,17.66
2023-05-04T13:34:26.867Z,17.79
2023-05-04T13:36:53.613Z,18.05
2023-05-04T13:39:22.041Z,17.87
2023-05-04T13:41:48.840Z,17.92
2023-05-04T13:44:15.596Z,18.58
2023-05-04T13:46:42.380Z,18.88
2023-05-04T13:49:09.310Z,19.15
2023-05-04T13:51:37.469Z,19.59
2023-05-04T13:54:04.301Z,19.57
2023-05-04T13:56:31.086Z,19.96
2023-05-04T13:58:57.874Z,19.75
2023-05-04T14:01:25.060Z,19.77
2023-05-04T14:03:52.013Z,20.09
2023-05-04T14:06:18.726Z,20.22
2023-05-04T14:08:45.471Z,20.54
2023-05-04T14:11:12.237Z,21.00
2023-05-04T14:13:39.119Z,21.08
2023-05-04T14:16:05.920Z,21.44
2023-05-04T14:18:33.014Z,21.74
2023-05-04T14:20:59.847Z,22.40
2023-05-04T14:23:27.714Z,22.34
2023-05-04T14:25:57.152Z,22.55
2023-05-04T14:28:24.035Z,23.01
2023-05-04T14:30:51.045Z,22.68
2023-05-04T14:33:18.034Z,22.75
2023-05-04T14:35:48.024Z,22.79
2023-05-04T14:38:15.359Z,23.16
2023-05-04T14:40:42.129Z,23.32
2023-05-04T14:43:08.875Z,23.04
2023-05-04T14:45:35.626Z,23.09
2023-05-04T14:48:02.472Z,23.55
2023-05-04T14:50:29.348Z,22.91
2023-05-04T14:52:56.081Z,23.75
2023-05-04T14:55:22.870Z,24.11
2023-05-04T14:57:49.661Z,24.51
2023-05-04T15:00:20.002Z,24.48
2023-05-04T15:02:46.777Z,24.02
2023-05-04T15:05:13.718Z,24.10
2023-05-04T15:07:40.602Z,23.83
2023-05-04T15:10:09.283Z,23.96
2023-05-04T15:12:37.764Z,24.17
2023-05-04T15:15:05.097Z,23.98
2023-05-04T15:17:31.871Z,24.31
2023-05-04T15:20:01.126Z,24.39
2023-05-04T15:22:28.434Z,24.42
2023-05-04T15:24:55.697Z,24.86
2023-05-04T15:27:22.703Z,25.11
2023-05-04T15:29:49.428Z,24.93
2023-05-04T15:32:16.266Z,25.04
2023-05-04T15:34:48.164Z,24.98
2023-05-04T15:37:20.800Z,25.22
2023-05-04T15:39:47.551Z,24.63
2023-05-04T15:42:14.919Z,24.53
2023-05-04T15:44:41.808Z,25.31
2023-05-04T15:47:11.153Z,24.86
2023-05-04T15:49:38.958Z,24.75
2023-05-04T15:52:05.964Z,24.59
2023-05-04T15:54:32.762Z,25.03
2023-05-04T15:57:00.042Z,25.56
2023-05-04T15:59:27.083Z,25.49
2023-05-04T16:01:54.344Z,25.46
2023-05-04T16:04:21.020Z,25.06
2023-05-04T16:06:48.239Z,25.49
2023-05-04T16:09:20.185Z,25.29
2023-05-04T16:11:47.058Z,25.18
2023-05-04T16:14:14.426Z,25.17
2023-05-04T16:16:41.612Z,25.31
2023-05-04T16:19:10.212Z,25.11
2023-05-04T16:21:38.776Z,25.13
2023-05-04T16:24:07.763Z,25.26
2023-05-04T16:26:34.512Z,24.95
2023-05-04T16:29:01.218Z,25.18
2023-05-04T16:31:28.202Z,24.93
2023-05-04T16:33:55.376Z,24.78
2023-05-04T16:36:22.147Z,25.00
2023-05-04T16:38:48.921Z,24.96
2023-05-04T16:41:17.581Z,24.95
2023-05-04T16:43:44.398Z,24.74
2023-05-04T16:46:11.172Z,25.08
2023-05-04T16:48:38.786Z,25.45
2023-05-04T16:51:06.063Z,25.51
2023-05-04T16:53:32.904Z,25.29
2023-05-04T16:55:59.633Z,25.26
2023-05-04T16:58:27.830Z,25.15
2023-05-04T17:00:55.572Z,25.18
2023-05-04T17:03:22.712Z,24.84
2023-05-04T17:05:49.756Z,24.66
2023-05-04T17:08:17.547Z,24.55
2023-05-04T17:10:44.268Z,24.67
2023-05-04T17:13:11.063Z,24.97
2023-05-04T17:15:37.826Z,24.88
2023-05-04T17:18:04.608Z,24.94
2023-05-04T17:20:32.214Z,24.97
2023-05-04T17:22:59.299Z,24.95
2023-05-04T17:25:27.058Z,24.99
2023-05-04T17:27:54.561Z,25.06
2023-05-04T17:30:21.557Z,25.20
2023-05-04T17:32:48.891Z,24.88
2023-05-04T17:35:25.257Z,24.80
2023-05-04T17:37:57.580Z,24.84
2023-05-04T17:40:25.136Z,25.04
2023-05-04T17:42:54.739Z,25.11
2023-05-04T17:45:22.030Z,25.49
2023-05-04T17:47:50.754Z,25.47
2023-05-04T17:50:17.699Z,25.35
2023-05-04T17:52:56.257Z,25.36
2023-05-04T17:55:28.166Z,25.47
2023-05-04T17:58:01.329Z,25.53
2023-05-04T18:00:28.413Z,25.62
2023-05-04T18:02:55.340Z,25.47
2023-05-04T18:05:22.204Z,25.69
2023-05-04T18:07:48.963Z,25.47
2023-05-04T18:10:15.681Z,25.38
2023-05-04T18:12:42.486Z,25.05
2023-05-04T18:15:09.606Z,25.32
2023-05-04T18:17:38.078Z,25.09
2023-05-04T18:20:07.348Z,24.92
2023-05-04T18:22:34.522Z,24.65
2023-05-04T18:25:01.340Z,24.96
2023-05-04T18:27:38.820Z,24.91
2023-05-04T18:30:06.756Z,25.30
2023-05-04T18:32:34.224Z,25.44
2023-05-04T18:35:01.639Z,25.02
2023-05-04T18:37:30.736Z,24.73
2023-05-04T18:39:58.136Z,24.79
2023-05-04T18:42:24.951Z,25.03
2023-05-04T18:44:52.431Z,24.88
2023-05-04T18:47:19.398Z,24.92
2023-05-04T18:49:54.517Z,25.09
2023-05-04T18:52:21.851Z,25.16
2023-05-04T18:54:52.073Z,25.17
2023-05-04T18:57:18.864Z,25.36
2023-05-04T18:59:45.925Z,25.24
2023-05-04T19:02:12.757Z,25.73
2023-05-04T19:04:39.481Z,25.37
2023-05-04T19:07:06.242Z,25.28
2023-05-04T19:09:33.144Z,25.38
2023-05-04T19:12:00.502Z,25.35
2023-05-04T19:14:30.388Z,25.33
2023-05-04T19:16:58.055Z,25.17
2023-05-04T19:19:26.119Z,25.36
2023-05-04T19:21:52.887Z,25.17
2023-05-04T19:24:19.828Z,25.27
2023-05-04T19:26:46.736Z,25.06
2023-05-04T19:29:13.532Z,25.17
2023-05-04T19:31:40.423Z,25.36
2023-05-04T19:34:07.376Z,25.47
2023-05-04T19:36:34.194Z,25.34
2023-05-04T19:39:00.999Z,24.90
2023-05-04T19:41:28.085Z,25.10
2023-05-04T19:43:54.819Z,25.07
2023-05-04T19:46:22.773Z,24.95
2023-05-04T19:48:49.631Z,25.14
2023-05-04T19:51:16.455Z,25.71
2023-05-04T19:53:43.239Z,25.55
2023-05-04T19:56:10.015Z,25.67
2023-05-04T19:58:37.967Z,25.61
2023-05-04T20:01:04.953Z,25.48
2023-05-04T20:03:31.638Z,25.23
2023-05-04T20:05:59.966Z,25.02
2023-05-04T20:08:27.058Z,24.95
2023-05-04T20:10:53.753Z,25.16
2023-05-04T20:13:20.494Z,24.84
2023-05-04T20:15:49.428Z,24.83
2023-05-04T20:18:16.865Z,24.88
2023-05-04T20:20:43.643Z,25.00
2023-05-04T20:23:10.399Z,24.96
2023-05-04T20:25:37.109Z,25.01
2023-05-04T20:28:04.382Z,25.14
2023-05-04T20:30:31.210Z,24.77
2023-05-04T20:32:57.968Z,24.99
2023-05-04T20:35:24.730Z,25.02
2023-05-04T20:37:51.533Z,25.01
2023-05-04T20:40:18.418Z,26.04
2023-05-04T20:42:45.271Z,25.28
2023-05-04T20:45:12.031Z,25.30
2023-05-04T20:47:38.895Z,25.66
2023-05-04T20:50:08.022Z,25.74
2023-05-04T20:52:35.034Z,25.70
2023-05-04T20:55:02.016Z,25.77
2023-05-04T20:57:29.026Z,25.49
2023-05-04T20:59:56.474Z,25.76
2023-05-04T21:02:23.258Z,26.09
2023-05-04T21:04:50.302Z,26.05
2023-05-04T21:07:17.069Z,26.29
2023-05-04T21:09:43.975Z,26.33
2023-05-04T21:12:11.020Z,26.28
2023-05-04T21:14:37.748Z,26.48
2023-05-04T21:17:04.874Z,26.66
2023-05-04T21:19:31.623Z,26.30
2023-05-04T21:21:58.411Z,26.20
2023-05-04T21:24:25.331Z,26.22
2023-05-04T21:26:52.080Z,25.90
2023-05-04T21:29:18.793Z,25.69
2023-05-04T21:31:45.775Z,25.78
2023-05-04T21:34:12.639Z,25.74
2023-05-04T21:36:40.399Z,25.82
2023-05-04T21:39:07.555Z,26.03
2023-05-04T21:41:34.374Z,25.92
2023-05-04T21:44:01.063Z,26.02
2023-05-04T21:46:28.155Z,26.03
2023-05-04T21:48:54.937Z,25.79
2023-05-04T21:51:21.719Z,25.68
2023-05-04T21:53:48.984Z,25.75
2023-05-04T21:56:15.787Z,25.80
2023-05-04T21:58:43.396Z,25.59
2023-05-04T22:01:14.787Z,26.11
2023-05-04T22:03:41.589Z,26.34
2023-05-04T22:06:08.465Z,25.99
2023-05-04T22:08:35.561Z,26.02
2023-05-04T22:14:03.588Z,32.48
2023-05-04T22:16:30.352Z,29.85
2023-05-04T22:18:57.190Z,29.37
2023-05-04T22:21:23.980Z,29.11
2023-05-04T22:23:51.096Z,28.55
2023-05-04T22:26:18.278Z,28.47
2023-05-04T22:28:45.125Z,28.37
2023-05-04T22:31:12.066Z,28.23
2023-05-04T22:33:38.780Z,28.30
2023-05-04T22:36:05.835Z,28.06
2023-05-04T22:38:32.547Z,28.23
2023-05-04T22:40:59.277Z,28.42
2023-05-04T22:43:26.377Z,28.33
2023-05-04T22:45:53.239Z,28.08
2023-05-04T22:48:20.775Z,27.97
2023-05-04T22:50:48.638Z,27.96
2023-05-04T22:53:15.662Z,28.00
2023-05-04T22:55:42.725Z,28.18
2023-05-04T22:58:12.181Z,28.30
2023-05-04T23:00:38.987Z,28.37
2023-05-04T23:03:06.481Z,28.08
2023-05-04T23:05:33.493Z,27.78
2023-05-04T23:08:00.544Z,27.85
2023-05-04T23:10:27.314Z,27.76
2023-05-04T23:12:54.106Z,27.96
2023-05-04T23:15:23.290Z,28.07
2023-05-04T23:17:50.086Z,28.13
2023-05-04T23:20:17.149Z,27.96
2023-05-04T23:22:43.857Z,27.90
2023-05-04T23:25:10.949Z,27.96
2023-05-04T23:27:37.955Z,27.77
2023-05-04T23:30:06.266Z,27.71
2023-05-04T23:32:33.226Z,27.95
2023-05-04T23:35:00.155Z,27.80
2023-05-04T23:37:29.075Z,28.36
2023-05-04T23:39:55.771Z,28.28
2023-05-04T23:42:22.488Z,28.31
2023-05-04T23:44:49.323Z,28.41
2023-05-04T23:47:16.011Z,28.50
2023-05-04T23:49:42.693Z,28.60
2023-05-04T23:52:09.446Z,28.24
2023-05-04T23:54:36.699Z,28.15
2023-05-04T23:57:03.740Z,28.12
2023-05-04T23:59:30.493Z,27.99
